Hilda, Canada
Current Conditions -  °F | °C
As of 12:00 PM on Thursday 18 Dec 2014 (Local Time) from CYXH Reporting Station
Broken Clouds Broken Clouds  
Wind Chill: 19°   Ceiling: 13000
Heat Index: 19°   Visibility: 30mi
Dew Point: 18°   Wind: 3mph
Humidity: 93%   Direction: 80°E
Pressure: 29.86"   Gusts: NA
Location:  50.48°N, 110.02°W
Report Text: CYXH 181900Z 08003KT 30SM BKN130 BKN280 M07/M08 A2986 RMK AC5CI1 SLP148
Loading
Personal Weather Stations






























Interactive Weather Map New forecast layout! Learn more

10-Day Weather Forecast

Advertisements
Track Severe Weather on mobile